This is the latest recevied weather packets stored in our database for station/object OE5RBO. If no packets are shown the sender has not sent any weather packets the latest 10 day(s).
| Time | Temp. | Humidity | Pressure | Rain* | Wind** | Luminosity | Snow |
|---|---|---|---|---|---|---|---|
| 1787600786 | 20° C | 73% | 1015.3 hPa | 0 mm | - | - | - |
| 1787600186 | 19.44° C | 76% | 1015.4 hPa | 0 mm | - | - | - |
| 1787599586 | 20° C | 78% | 1015.3 hPa | 0 mm | - | - | - |
| 1787598985 | 19.44° C | 77% | 1015.3 hPa | 0 mm | - | - | - |
| 1787598385 | 19.44° C | 79% | 1015.4 hPa | 0 mm | - | - | - |
| 1787597784 | 19.44° C | 79% | 1015.4 hPa | 0 mm | - | - | - |
| 1787597184 | 19.44° C | 78% | 1015.4 hPa | 0 mm | - | - | - |
| 1787596584 | 20° C | 77% | 1015.4 hPa | 0 mm | - | - | - |
| 1787595983 | 20° C | 77% | 1015.4 hPa | 0 mm | - | - | - |
| 1787595383 | 20° C | 77% | 1015.5 hPa | 0 mm | - | - | - |
| 1787594783 | 20.56° C | 76% | 1015.5 hPa | 0 mm | - | - | - |
| 1787594182 | 21.11° C | 73% | 1015.8 hPa | 0 mm | - | - | - |
| 1787592982 | 23.33° C | 66% | 1015.8 hPa | 0 mm | - | - | - |
| 1787592381 | 23.89° C | 62% | 1015.9 hPa | 0 mm | - | - | - |
| 1787591781 | 24.44° C | 60% | 1016.1 hPa | 0 mm | - | - | - |
| 1787590580 | 25° C | 59% | 1016.4 hPa | 0 mm | - | - | - |
| 1787589980 | 25° C | 58% | 1016.6 hPa | 0 mm | - | - | - |
| 1787588179 | 25° C | 56% | 1017 hPa | 0 mm | - | - | - |
| 1787587578 | 25° C | 60% | 1017.1 hPa | 0 mm | - | - | - |
| 1787586978 | 25° C | 57% | 1017.3 hPa | 0 mm | - | - | - |
| 1787585777 | 24.44° C | 57% | 1017.4 hPa | 0 mm | - | - | - |
| 1787585177 | 25.56° C | 58% | 1017.5 hPa | 0 mm | - | - | - |
| 1787583976 | 25.56° C | 59% | 1018 hPa | 0 mm | - | - | - |
| 1787582775 | 26.11° C | 57% | 1018.2 hPa | 0 mm | - | - | - |
| 1787582175 | 26.11° C | 54% | 1018.1 hPa | 0 mm | - | - | - |
* Rain since midnight (hover to see other rain measurements)
** Current wind speed in m/s (hover to see current wind gust speed)